Time;durP1;ratioP1;P1;durP2;ratioP2;P2;SDS_P1;SDS_P2;PMS_P1;PMS_P2;Temp;Humidity;BMP_temperature;BMP_pressure;BME280_temperature;BME280_humidity;BME280_pressure;Samples;Min_cycle;Max_cycle;Signal;HPM_P1;HPM_P2
2022/08/24 00:01:26;;;;;;;2.55;2.45;;;24.50;66.70;;;;;;5056099;28;43491;-67
2022/08/24 00:03:56;;;;;;;2.42;2.33;;;24.40;66.60;;;;;;5035194;28;45018;-67
2022/08/24 00:06:27;;;;;;;2.45;2.33;;;24.40;66.60;;;;;;5038860;28;43954;-67
2022/08/24 00:08:56;;;;;;;2.38;2.28;;;24.40;66.60;;;;;;5036984;28;43441;-66
2022/08/24 00:11:25;;;;;;;2.90;2.67;;;24.50;66.70;;;;;;5033893;28;43539;-67
2022/08/24 00:13:53;;;;;;;2.67;2.58;;;24.40;66.60;;;;;;5041370;28;44508;-67
2022/08/24 00:16:21;;;;;;;2.40;2.30;;;24.50;66.60;;;;;;5034328;28;43675;-67
2022/08/24 00:18:49;;;;;;;2.22;2.13;;;24.40;66.60;;;;;;5039839;28;43431;-67
2022/08/24 00:21:17;;;;;;;2.72;2.53;;;24.40;66.50;;;;;;5034113;28;43598;-67
2022/08/24 00:23:48;;;;;;;2.67;2.47;;;24.50;66.60;;;;;;5032524;28;44715;-67
2022/08/24 00:26:16;;;;;;;2.53;2.42;;;24.40;66.50;;;;;;5036556;28;44436;-67
2022/08/24 00:28:55;;;;;;;2.60;2.40;;;24.40;66.50;;;;;;5044746;28;43402;-67
2022/08/24 00:31:23;;;;;;;2.20;2.10;;;24.40;66.50;;;;;;5034195;28;43689;-67
2022/08/24 00:33:50;;;;;;;2.58;2.47;;;24.50;66.50;;;;;;5050310;28;43771;-66
2022/08/24 00:36:20;;;;;;;2.78;2.58;;;24.40;66.50;;;;;;5035938;28;43979;-67
2022/08/24 00:38:49;;;;;;;2.77;2.40;;;24.50;66.50;;;;;;5043560;28;43400;-67
2022/08/24 00:41:17;;;;;;;2.30;2.10;;;24.40;66.60;;;;;;5041967;28;43705;-67
2022/08/24 00:43:53;;;;;;;2.80;2.60;;;24.40;66.50;;;;;;5035200;28;43877;-66
2022/08/24 00:46:57;;;;;;;2.53;2.42;;;24.40;66.50;;;;;;5039242;28;43887;-67
2022/08/24 00:49:28;;;;;;;2.13;2.03;;;24.40;66.60;;;;;;5030465;28;43549;-67
2022/08/24 00:51:55;;;;;;;;;;;24.40;66.50;;;;;;5043881;28;43554;-67
2022/08/24 00:54:27;;;;;;;2.67;2.47;;;24.40;66.60;;;;;;5056288;28;43806;-67
2022/08/24 00:57:01;;;;;;;2.40;2.30;;;24.40;66.60;;;;;;5043349;28;43958;-67
2022/08/24 00:59:35;;;;;;;2.20;2.10;;;24.40;66.60;;;;;;5030536;28;43421;-67
2022/08/24 01:02:10;;;;;;;2.20;2.10;;;24.40;66.60;;;;;;5047547;28;43439;-67
2022/08/24 01:04:55;;;;;;;2.00;1.90;;;24.40;67.20;;;;;;5037183;28;46271;-67
2022/08/24 01:07:24;;;;;;;;;;;24.40;66.60;;;;;;5057310;28;44312;-67
2022/08/24 01:09:54;;;;;;;2.40;2.30;;;24.30;66.50;;;;;;5032294;28;43482;-67
2022/08/24 01:12:24;;;;;;;2.45;2.35;;;24.30;66.50;;;;;;5040049;28;43956;-67
2022/08/24 01:14:52;;;;;;;2.38;2.28;;;24.30;66.50;;;;;;5042234;28;45008;-67
2022/08/24 01:20:08;;;;;;;2.30;2.20;;;24.30;66.50;;;;;;5050016;28;43402;-67
2022/08/24 01:22:52;;;;;;;2.47;2.28;;;24.30;66.50;;;;;;5054794;28;43454;-67
2022/08/24 01:25:22;;;;;;;2.40;2.20;;;24.30;66.50;;;;;;5043936;28;44277;-66
2022/08/24 01:27:52;;;;;;;2.40;2.30;;;24.30;66.50;;;;;;5041905;28;43426;-67
2022/08/24 01:30:20;;;;;;;2.47;2.38;;;24.30;66.50;;;;;;5037146;28;43504;-67
2022/08/24 01:33:02;;;;;;;2.22;2.13;;;24.30;66.50;;;;;;5041344;28;43511;-67
2022/08/24 01:35:30;;;;;;;2.20;2.10;;;24.30;66.50;;;;;;5040838;28;44972;-67
2022/08/24 01:38:01;;;;;;;2.60;2.40;;;24.30;66.50;;;;;;5024925;28;44375;-67
2022/08/24 01:40:41;;;;;;;2.40;2.30;;;24.30;66.50;;;;;;5036463;28;43490;-67
2022/08/24 01:43:11;;;;;;;2.60;2.40;;;24.30;66.50;;;;;;5056423;28;43432;-67
2022/08/24 01:45:40;;;;;;;2.20;2.10;;;24.30;66.50;;;;;;5041917;28;44165;-67
2022/08/24 01:48:09;;;;;;;2.50;2.40;;;24.30;66.60;;;;;;5050311;28;43439;-67
2022/08/24 01:50:37;;;;;;;2.45;2.20;;;24.30;66.50;;;;;;5041998;28;43427;-67
2022/08/24 01:53:07;;;;;;;2.60;2.40;;;24.30;66.60;;;;;;5023429;28;43425;-67
2022/08/24 01:55:35;;;;;;;2.35;2.25;;;24.30;66.60;;;;;;5025201;28;43983;-67
2022/08/24 01:58:04;;;;;;;2.15;2.05;;;24.30;66.60;;;;;;5044571;28;43726;-67
2022/08/24 02:00:34;;;;;;;2.25;2.15;;;24.30;66.60;;;;;;5052187;28;43519;-67
2022/08/24 02:03:02;;;;;;;2.17;2.08;;;24.30;66.60;;;;;;5036858;28;43479;-67
2022/08/24 02:05:30;;;;;;;2.40;2.30;;;24.30;66.60;;;;;;5040550;28;44766;-67
2022/08/24 02:07:58;;;;;;;2.30;2.20;;;24.20;66.60;;;;;;5052852;28;43669;-67
2022/08/24 02:10:28;;;;;;;2.20;2.10;;;24.20;66.60;;;;;;5054540;28;43483;-67
2022/08/24 02:12:57;;;;;;;2.30;2.20;;;24.20;66.60;;;;;;5057906;28;43515;-67
2022/08/24 02:15:32;;;;;;;2.55;2.40;;;24.20;66.60;;;;;;5035161;28;44237;-67
2022/08/24 02:18:03;;;;;;;2.50;2.30;;;24.20;66.70;;;;;;5037112;28;44024;-67
2022/08/24 02:20:31;;;;;;;2.30;2.20;;;24.20;66.70;;;;;;5056176;28;44103;-67
2022/08/24 02:22:59;;;;;;;2.20;2.10;;;24.20;66.60;;;;;;5033995;28;43555;-67
2022/08/24 02:25:29;;;;;;;2.17;2.08;;;24.20;66.60;;;;;;5039486;28;44768;-67
2022/08/24 02:27:58;;;;;;;2.15;2.05;;;24.20;66.60;;;;;;5056240;28;43971;-67
2022/08/24 02:30:27;;;;;;;2.10;2.00;;;24.20;66.70;;;;;;5023435;28;43506;-67
2022/08/24 02:32:55;;;;;;;2.40;2.30;;;24.20;66.60;;;;;;5036213;28;43516;-67
2022/08/24 02:35:23;;;;;;;2.20;2.10;;;24.10;66.60;;;;;;5051682;28;44667;-67
2022/08/24 02:37:51;;;;;;;2.22;2.13;;;24.10;66.60;;;;;;5038253;28;43406;-67
2022/08/24 02:40:19;;;;;;;2.25;2.15;;;24.10;66.60;;;;;;5052566;28;43425;-67
2022/08/24 02:42:46;;;;;;;2.25;2.15;;;24.20;66.70;;;;;;5023545;28;43515;-67
2022/08/24 02:45:14;;;;;;;2.33;2.22;;;24.10;66.60;;;;;;5037486;28;44965;-67
2022/08/24 02:47:44;;;;;;;2.38;2.28;;;24.10;66.60;;;;;;5056342;28;44008;-67
2022/08/24 02:50:16;;;;;;;2.10;2.00;;;24.10;66.60;;;;;;5029756;28;43492;-67
2022/08/24 02:52:44;;;;;;;2.40;2.30;;;24.10;66.60;;;;;;5057435;28;43561;-67
2022/08/24 02:55:15;;;;;;;2.20;2.10;;;24.10;66.60;;;;;;5038133;28;44012;-67
2022/08/24 02:57:49;;;;;;;2.42;2.30;;;24.10;66.60;;;;;;5054043;28;43670;-67
2022/08/24 03:00:20;;;;;;;2.40;2.20;;;24.10;66.60;;;;;;5041435;28;43501;-67
2022/08/24 03:02:52;;;;;;;2.47;2.28;;;24.10;66.60;;;;;;5050879;28;43413;-67
2022/08/24 03:05:21;;;;;;;2.10;2.00;;;24.10;66.60;;;;;;5043261;28;45005;-67
2022/08/24 03:07:49;;;;;;;2.08;1.98;;;24.10;66.60;;;;;;5052491;28;43470;-67
2022/08/24 03:10:20;;;;;;;2.05;1.90;;;24.10;66.60;;;;;;5027039;28;43511;-67
2022/08/24 03:12:49;;;;;;;2.60;2.40;;;24.10;66.70;;;;;;5041065;28;43508;-67
2022/08/24 03:15:22;;;;;;;2.13;2.03;;;24.10;66.60;;;;;;5038099;28;43879;-67
2022/08/24 03:17:50;;;;;;;2.42;2.20;;;24.10;66.60;;;;;;5031114;28;44103;-67
2022/08/24 03:20:20;;;;;;;1.83;1.73;;;24.10;66.70;;;;;;5045329;28;43563;-67
2022/08/24 03:22:49;;;;;;;2.25;2.15;;;24.10;66.60;;;;;;5049216;28;43485;-67
2022/08/24 03:25:19;;;;;;;2.20;2.00;;;24.10;66.60;;;;;;5053366;28;44058;-67
2022/08/24 03:27:47;;;;;;;2.00;1.90;;;24.00;66.60;;;;;;5036379;28;43454;-67
2022/08/24 03:30:17;;;;;;;2.00;1.90;;;24.00;66.60;;;;;;5051182;28;43497;-67
2022/08/24 03:32:47;;;;;;;2.20;2.10;;;24.00;66.60;;;;;;5056373;28;43545;-67
2022/08/24 03:35:17;;;;;;;2.47;2.28;;;24.00;66.60;;;;;;5022218;28;44910;-67
2022/08/24 03:37:44;;;;;;;2.10;2.00;;;24.00;66.60;;;;;;5027567;28;43432;-67
2022/08/24 03:40:14;;;;;;;2.28;2.08;;;24.00;66.60;;;;;;5038596;28;43539;-67
2022/08/24 03:42:54;;;;;;;2.15;1.95;;;24.00;66.60;;;;;;5057047;28;43422;-67
2022/08/24 03:45:22;;;;;;;2.08;1.98;;;24.00;66.60;;;;;;5053876;28;44027;-67
2022/08/24 03:47:50;;;;;;;2.00;1.90;;;24.00;66.60;;;;;;5049808;28;44046;-67
2022/08/24 03:50:19;;;;;;;1.80;1.70;;;24.00;66.60;;;;;;5056427;28;43490;-67
2022/08/24 03:52:47;;;;;;;2.00;1.90;;;24.00;66.60;;;;;;5045106;28;43563;-67
2022/08/24 03:55:17;;;;;;;2.10;2.00;;;24.00;66.60;;;;;;5052378;28;44752;-67
2022/08/24 03:57:46;;;;;;;1.90;1.80;;;24.00;66.60;;;;;;5041716;28;43470;-67
2022/08/24 04:00:15;;;;;;;1.85;1.73;;;24.00;66.60;;;;;;5047240;28;43499;-67
2022/08/24 04:02:49;;;;;;;1.95;1.85;;;24.00;66.60;;;;;;5041840;28;43513;-67
2022/08/24 04:05:20;;;;;;;1.80;1.70;;;23.90;66.60;;;;;;5054318;28;44980;-67
2022/08/24 04:07:47;;;;;;;1.95;1.85;;;23.90;66.60;;;;;;5054015;28;43976;-67
2022/08/24 04:10:15;;;;;;;2.20;2.10;;;23.90;66.60;;;;;;5055296;28;43502;-67
2022/08/24 04:12:42;;;;;;;1.70;1.70;;;23.90;66.60;;;;;;5060833;28;43692;-67
2022/08/24 04:15:12;;;;;;;2.10;2.00;;;23.90;66.60;;;;;;5051712;28;44807;-67
2022/08/24 04:17:40;;;;;;;2.15;2.05;;;23.90;66.60;;;;;;5053920;28;44051;-67
2022/08/24 04:20:08;;;;;;;1.98;1.88;;;23.90;66.60;;;;;;5054302;28;43458;-67
2022/08/24 04:22:38;;;;;;;1.80;1.70;;;23.90;66.60;;;;;;5036794;28;43620;-67
2022/08/24 04:25:08;;;;;;;2.00;1.90;;;23.90;66.60;;;;;;5037677;28;44781;-67
2022/08/24 04:27:39;;;;;;;1.80;1.70;;;23.90;66.60;;;;;;5043463;28;43661;-67
2022/08/24 04:30:09;;;;;;;1.80;1.70;;;23.90;66.70;;;;;;5037549;28;43995;-67
2022/08/24 04:33:03;;;;;;;2.10;2.00;;;23.90;66.60;;;;;;5033413;28;43605;-67
2022/08/24 04:35:31;;;;;;;2.05;1.95;;;23.90;66.70;;;;;;5042235;28;44925;-67
2022/08/24 04:37:59;;;;;;;1.90;1.80;;;23.80;66.60;;;;;;5041422;28;43957;-68
2022/08/24 04:40:26;;;;;;;2.10;2.00;;;23.90;66.80;;;;;;5044917;28;43581;-66
2022/08/24 04:42:54;;;;;;;2.17;2.08;;;23.80;66.70;;;;;;5032894;28;43402;-66
2022/08/24 04:45:22;;;;;;;2.03;1.92;;;23.80;66.70;;;;;;5050992;28;43759;-67
2022/08/24 04:47:50;;;;;;;1.80;1.70;;;23.80;66.70;;;;;;5052426;28;43431;-66
2022/08/24 04:50:18;;;;;;;1.70;1.60;;;23.80;66.70;;;;;;5052209;28;43457;-66
2022/08/24 04:52:51;;;;;;;1.90;1.60;;;23.80;66.70;;;;;;5041210;28;43502;-67
2022/08/24 04:55:18;;;;;;;1.90;1.80;;;23.80;66.70;;;;;;5058108;28;43810;-66
2022/08/24 04:57:46;;;;;;;1.60;1.60;;;23.80;66.70;;;;;;5053628;28;43413;-67
2022/08/24 05:00:14;;;;;;;2.10;1.88;;;23.80;66.70;;;;;;5033825;28;43428;-67
2022/08/24 05:02:43;;;;;;;2.00;1.77;;;23.80;66.70;;;;;;5047356;28;43519;-67
2022/08/24 05:05:12;;;;;;;1.73;1.63;;;23.80;66.70;;;;;;5044623;28;43748;-67
2022/08/24 05:07:40;;;;;;;2.05;1.83;;;23.80;66.70;;;;;;5039488;28;43988;-66
2022/08/24 05:10:09;;;;;;;1.65;1.60;;;23.80;66.70;;;;;;5039275;28;43523;-67
2022/08/24 05:12:38;;;;;;;1.85;1.75;;;23.80;66.70;;;;;;5034927;28;43530;-67
2022/08/24 05:15:09;;;;;;;1.92;1.83;;;23.80;66.70;;;;;;5041478;28;43808;-67
2022/08/24 05:17:41;;;;;;;1.90;1.80;;;23.80;66.70;;;;;;5053334;28;43694;-68
2022/08/24 05:20:18;;;;;;;1.67;1.58;;;23.80;66.70;;;;;;5043635;28;43409;-68
2022/08/24 05:22:45;;;;;;;1.73;1.63;;;23.80;66.70;;;;;;5038223;28;43562;-68
2022/08/24 05:25:13;;;;;;;3.08;1.80;;;23.80;67.30;;;;;;5038477;28;44097;-67
2022/08/24 05:27:41;;;;;;;1.83;1.73;;;23.80;66.70;;;;;;5031984;28;43793;-67
2022/08/24 05:30:09;;;;;;;1.60;1.60;;;23.80;66.80;;;;;;5038679;28;43503;-68
2022/08/24 05:32:38;;;;;;;1.48;1.48;;;23.80;66.70;;;;;;5047868;28;43491;-68
2022/08/24 05:35:06;;;;;;;1.60;1.50;;;23.80;66.70;;;;;;5040608;28;44024;-68
2022/08/24 05:37:36;;;;;;;1.52;1.50;;;23.80;66.70;;;;;;5041168;28;43716;-68
2022/08/24 05:40:18;;;;;;;1.67;1.58;;;23.80;66.70;;;;;;5034263;28;43522;-67
2022/08/24 05:42:53;;;;;;;1.65;1.65;;;23.80;66.70;;;;;;5053325;28;43526;-68
2022/08/24 05:45:21;;;;;;;1.50;1.45;;;23.80;66.80;;;;;;5040805;28;43792;-68
2022/08/24 05:47:50;;;;;;;1.52;1.50;;;23.80;66.70;;;;;;5048426;28;43950;-67
2022/08/24 05:50:36;;;;;;;2.17;1.98;;;23.80;66.70;;;;;;5035072;28;43495;-66
2022/08/24 05:53:04;;;;;;;1.95;1.85;;;23.80;66.70;;;;;;5041452;28;43638;-68
2022/08/24 05:55:32;;;;;;;1.58;1.52;;;23.80;66.70;;;;;;5048113;28;45013;-69
2022/08/24 05:58:00;;;;;;;1.80;1.70;;;23.80;66.70;;;;;;5042187;28;44083;-68
2022/08/24 06:00:28;;;;;;;1.65;1.55;;;23.80;66.70;;;;;;5053335;28;43469;-67
2022/08/24 06:02:55;;;;;;;1.80;1.70;;;23.70;66.70;;;;;;5037137;28;43471;-68
2022/08/24 06:05:23;;;;;;;1.80;1.70;;;23.70;66.80;;;;;;5040922;28;44991;-68
2022/08/24 06:07:50;;;;;;;1.60;1.50;;;23.70;66.80;;;;;;5052522;28;43648;-67
2022/08/24 06:10:19;;;;;;;1.50;1.40;;;23.70;66.80;;;;;;5042971;28;43463;-67
2022/08/24 06:13:05;;;;;;;1.58;1.50;;;23.70;66.80;;;;;;5049189;28;43459;-67
2022/08/24 06:15:33;;;;;;;1.60;1.50;;;23.70;67.50;;;;;;5050413;28;44679;-67
2022/08/24 06:18:02;;;;;;;1.70;1.60;;;23.70;66.80;;;;;;5037719;28;43979;-67
2022/08/24 06:20:30;;;;;;;1.83;1.73;;;23.70;66.80;;;;;;5052217;28;43404;-66
2022/08/24 06:22:58;;;;;;;1.85;1.75;;;23.70;66.80;;;;;;5024964;28;43531;-67
2022/08/24 06:28:20;;;;;;;1.80;1.70;;;23.60;66.90;;;;;;5038054;28;43429;-66
2022/08/24 06:30:48;;;;;;;1.65;1.60;;;23.70;66.90;;;;;;5040385;28;43467;-66
2022/08/24 06:33:26;;;;;;;1.90;1.80;;;23.60;66.90;;;;;;5048794;28;43531;-66
2022/08/24 06:35:56;;;;;;;1.70;1.60;;;23.70;67.00;;;;;;5055079;28;43788;-66
2022/08/24 06:38:24;;;;;;;1.55;1.50;;;23.70;66.90;;;;;;5039717;28;43394;-66
2022/08/24 06:40:53;;;;;;;1.70;1.60;;;23.60;66.90;;;;;;5040823;28;43514;-66
2022/08/24 06:43:22;;;;;;;1.60;1.50;;;23.60;66.90;;;;;;5046250;28;43542;-66
2022/08/24 06:45:53;;;;;;;1.80;1.67;;;23.60;66.90;;;;;;5039297;28;44998;-66
2022/08/24 06:48:29;;;;;;;1.60;1.50;;;23.60;66.90;;;;;;5037409;28;43495;-66
2022/08/24 06:50:58;;;;;;;1.67;1.58;;;23.60;66.90;;;;;;5052895;28;43505;-65
2022/08/24 06:53:27;;;;;;;1.92;1.83;;;23.60;66.90;;;;;;5040247;28;43521;-66
2022/08/24 06:55:58;;;;;;;2.53;2.40;;;23.60;67.00;;;;;;5052328;28;44602;-66
2022/08/24 06:58:27;;;;;;;1.92;1.77;;;23.60;67.20;;;;;;5047190;28;43995;-66
2022/08/24 07:00:56;;;;;;;1.92;1.83;;;23.60;67.00;;;;;;5054971;28;43436;-66
2022/08/24 07:03:24;;;;;;;2.28;1.77;;;23.70;67.00;;;;;;5034552;28;43522;-66
2022/08/24 07:06:02;;;;;;;1.55;1.50;;;23.60;66.90;;;;;;5039189;28;44928;-66
2022/08/24 07:08:35;;;;;;;2.05;1.95;;;23.60;67.00;;;;;;5045164;28;43473;-66
2022/08/24 07:11:04;;;;;;;2.10;2.00;;;23.60;67.20;;;;;;5040104;28;43522;-66
2022/08/24 07:13:32;;;;;;;1.80;1.70;;;23.60;67.10;;;;;;5051646;28;43492;-66
2022/08/24 07:16:00;;;;;;;1.80;1.70;;;23.60;67.00;;;;;;5041801;28;44963;-66
2022/08/24 07:18:30;;;;;;;1.80;1.70;;;23.60;67.00;;;;;;5041955;28;44087;-67
2022/08/24 07:21:01;;;;;;;1.73;1.63;;;23.60;67.00;;;;;;5052515;28;43487;-66
2022/08/24 07:23:45;;;;;;;1.95;1.85;;;23.60;67.00;;;;;;5058437;28;43409;-66
2022/08/24 07:26:18;;;;;;;1.98;1.73;;;23.60;67.00;;;;;;5043046;28;44055;-66
2022/08/24 07:29:00;;;;;;;1.63;1.52;;;23.60;67.00;;;;;;5033185;28;43681;-66
2022/08/24 07:31:35;;;;;;;;;;;23.60;66.90;;;;;;5039091;28;43574;-66
2022/08/24 07:34:10;;;;;;;1.65;1.55;;;23.60;66.90;;;;;;5048337;28;43515;-66
2022/08/24 07:36:39;;;;;;;1.70;1.60;;;23.60;67.00;;;;;;5027052;28;44953;-66
2022/08/24 07:39:11;;;;;;;1.92;1.70;;;23.60;66.90;;;;;;5033653;28;43961;-66
2022/08/24 07:41:41;;;;;;;1.60;1.50;;;23.60;66.90;;;;;;5043372;28;43474;-67
2022/08/24 07:44:30;;;;;;;1.77;1.67;;;23.60;66.80;;;;;;5045403;28;44111;-66
2022/08/24 07:46:58;;;;;;;1.70;1.60;;;23.60;66.80;;;;;;5028847;28;44968;-66
2022/08/24 07:49:46;;;;;;;1.70;1.60;;;23.60;66.80;;;;;;5035510;28;43796;-66
2022/08/24 07:52:14;;;;;;;1.45;1.45;;;23.70;66.80;;;;;;5058190;28;43445;-66
2022/08/24 07:54:42;;;;;;;1.50;1.40;;;23.70;66.80;;;;;;5057192;28;43407;-66
2022/08/24 07:57:10;;;;;;;1.80;1.70;;;23.70;66.80;;;;;;5046428;28;43796;-67
2022/08/24 07:59:37;;;;;;;1.92;1.83;;;23.70;66.80;;;;;;5056044;28;43940;-66
2022/08/24 08:02:07;;;;;;;1.92;1.83;;;23.70;66.80;;;;;;5058542;28;43459;-66
2022/08/24 08:04:34;;;;;;;1.80;1.70;;;23.70;66.80;;;;;;5052619;28;43467;-66
2022/08/24 08:07:03;;;;;;;2.15;1.77;;;23.70;66.70;;;;;;5043168;28;44918;-66
2022/08/24 08:09:35;;;;;;;1.77;1.67;;;23.70;66.70;;;;;;5047318;28;43790;-66
2022/08/24 08:12:03;;;;;;;;;;;23.80;66.80;;;;;;5045421;28;43533;-66
2022/08/24 08:14:31;;;;;;;1.90;1.80;;;23.80;66.70;;;;;;5055482;28;43424;-66
2022/08/24 08:16:58;;;;;;;1.70;1.60;;;23.80;66.80;;;;;;5035185;28;44971;-66
2022/08/24 08:19:26;;;;;;;1.30;1.30;;;23.80;66.70;;;;;;5035682;28;43499;-66
2022/08/24 08:24:59;;;;;;;1.63;1.52;;;23.80;66.60;;;;;;5032464;28;43689;-66
2022/08/24 08:27:27;;;;;;;1.80;1.70;;;23.80;66.60;;;;;;5043422;28;44922;-66
2022/08/24 08:29:55;;;;;;;1.70;1.60;;;23.80;66.60;;;;;;5054539;28;43713;-66
2022/08/24 08:32:22;;;;;;;1.48;1.38;;;23.80;66.60;;;;;;5029635;28;43411;-66
2022/08/24 08:34:50;;;;;;;1.40;1.30;;;23.90;66.60;;;;;;5031756;28;43460;-66
2022/08/24 08:37:18;;;;;;;1.77;1.67;;;23.90;66.60;;;;;;5054557;28;44027;-66
2022/08/24 08:39:45;;;;;;;1.75;1.58;;;23.90;66.60;;;;;;5056216;28;43852;-66
2022/08/24 08:42:33;;;;;;;1.92;1.50;;;23.90;66.50;;;;;;5042941;28;43367;-66
2022/08/24 08:45:38;;;;;;;2.15;1.40;;;23.90;66.60;;;;;;5047035;28;43395;-66
2022/08/24 08:49:04;;;;;;;1.60;1.50;;;23.90;66.60;;;;;;5031843;28;43770;-67
2022/08/24 08:51:38;;;;;;;1.27;1.27;;;23.90;66.60;;;;;;5019824;28;43707;-66
2022/08/24 08:54:12;;;;;;;1.50;1.50;;;23.90;66.60;;;;;;5032220;28;43400;-66
2022/08/24 08:57:00;;;;;;;1.48;1.38;;;23.90;66.60;;;;;;5042407;28;43984;-66
2022/08/24 08:59:34;;;;;;;1.70;1.60;;;23.90;66.60;;;;;;5028901;28;43858;-66
2022/08/24 09:02:22;;;;;;;1.42;1.33;;;23.90;66.60;;;;;;5036477;28;43415;-66
2022/08/24 09:05:30;;;;;;;1.65;1.55;;;23.90;66.60;;;;;;5057775;28;43435;-67
2022/08/24 09:08:08;;;;;;;1.40;1.40;;;23.90;66.60;;;;;;5025902;28;43479;-66
2022/08/24 09:11:00;;;;;;;1.48;1.38;;;23.90;66.60;;;;;;5039815;28;45875;-66
2022/08/24 09:13:34;;;;;;;1.42;1.38;;;24.00;66.60;;;;;;5055066;28;43526;-66
2022/08/24 09:16:45;;;;;;;1.60;1.50;;;24.00;66.60;;;;;;5059452;28;44068;-66
2022/08/24 09:19:47;;;;;;;1.55;1.45;;;24.00;66.60;;;;;;5044006;28;43447;-66
2022/08/24 09:22:17;;;;;;;1.63;1.52;;;24.00;66.70;;;;;;5036285;28;45060;-66
2022/08/24 09:24:54;;;;;;;1.60;1.52;;;24.00;66.60;;;;;;5056792;28;43643;-67
2022/08/24 09:28:35;;;;;;;1.70;1.60;;;24.00;66.70;;;;;;5038964;28;43533;-67
2022/08/24 09:31:21;;;;;;;1.60;1.50;;;24.10;66.80;;;;;;5017264;28;43644;-67
2022/08/24 09:34:21;;;;;;;1.88;1.67;;;24.00;66.70;;;;;;5032024;28;43888;-66
2022/08/24 09:37:01;;;;;;;1.30;1.30;;;24.10;66.80;;;;;;5029338;28;44020;-67
2022/08/24 09:39:50;;;;;;;1.60;1.50;;;24.10;66.80;;;;;;5030638;28;43399;-67
2022/08/24 09:42:37;;;;;;;1.63;1.50;;;24.10;66.70;;;;;;5039554;28;43519;-67
2022/08/24 09:45:29;;;;;;;1.55;1.45;;;24.10;66.70;;;;;;5025072;28;44713;-67
2022/08/24 09:48:19;;;;;;;1.60;1.50;;;24.10;66.70;;;;;;5031693;28;43980;-67
2022/08/24 09:51:09;;;;;;;1.60;1.50;;;24.10;66.70;;;;;;5055296;28;43458;-67
2022/08/24 09:53:45;;;;;;;1.50;1.40;;;24.10;66.70;;;;;;5038041;28;43479;-67
2022/08/24 09:56:54;;;;;;;1.52;1.42;;;24.20;66.70;;;;;;5041803;28;44744;-67
2022/08/24 10:00:21;;;;;;;1.75;1.48;;;24.20;66.70;;;;;;5029219;28;43691;-67
2022/08/24 10:03:16;;;;;;;1.73;1.63;;;24.20;66.80;;;;;;5041013;28;43487;-67
2022/08/24 10:06:09;;;;;;;1.90;1.50;;;24.20;66.70;;;;;;5041346;28;43577;-67
2022/08/24 10:09:00;;;;;;;2.75;1.50;;;24.30;66.60;;;;;;5036659;28;43679;-67
2022/08/24 10:11:46;;;;;;;1.48;1.38;;;24.30;66.80;;;;;;5026788;28;43527;-67
2022/08/24 10:14:22;;;;;;;1.30;1.30;;;24.40;66.80;;;;;;5039277;28;44038;-67
2022/08/24 10:17:43;;;;;;;1.40;1.38;;;24.40;66.80;;;;;;5041288;28;43480;-66
2022/08/24 10:20:46;;;;;;;1.60;1.50;;;24.40;66.90;;;;;;4998235;28;44974;-67
2022/08/24 10:23:41;;;;;;;1.77;1.48;;;24.50;66.90;;;;;;4921061;28;44018;-67
2022/08/24 10:26:24;;;;;;;1.70;1.60;;;24.50;66.90;;;;;;5037340;28;43446;-67
2022/08/24 10:29:18;;;;;;;1.85;1.50;;;24.50;66.80;;;;;;5040193;28;43459;-66
2022/08/24 10:32:10;;;;;;;1.35;1.30;;;24.50;66.80;;;;;;5036063;28;43793;-66
2022/08/24 10:34:39;;;;;;;1.48;1.38;;;24.50;66.80;;;;;;5038501;28;43518;-67
2022/08/24 10:37:44;;;;;;;1.60;1.50;;;24.50;66.70;;;;;;5040225;28;43409;-66
2022/08/24 10:40:26;;;;;;;1.27;1.23;;;24.60;66.70;;;;;;5038318;28;43422;-66
2022/08/24 10:46:27;;;;;;;1.55;1.45;;;24.60;66.60;;;;;;5012676;28;43507;-66
2022/08/24 10:49:16;;;;;;;1.42;1.33;;;24.70;66.60;;;;;;5038811;28;43475;-66
2022/08/24 10:52:05;;;;;;;1.63;1.50;;;24.70;66.60;;;;;;5040079;28;43567;-66
2022/08/24 10:54:35;;;;;;;2.15;1.58;;;24.70;66.50;;;;;;5041015;28;44999;-66
2022/08/24 10:57:23;;;;;;;3.63;1.40;;;24.70;66.50;;;;;;5040112;28;43693;-67
2022/08/24 11:00:13;;;;;;;1.67;1.58;;;24.70;66.30;;;;;;5038487;28;43416;-66
2022/08/24 11:03:14;;;;;;;2.25;1.88;;;24.80;66.50;;;;;;5040563;28;43652;-66
2022/08/24 11:05:53;;;;;;;2.33;1.90;;;24.80;66.70;;;;;;5037564;28;44394;-66
2022/08/24 11:08:29;;;;;;;1.73;1.63;;;24.80;66.40;;;;;;5053220;28;44085;-66
2022/08/24 11:11:12;;;;;;;1.70;1.60;;;24.80;66.40;;;;;;5037643;28;43438;-66
2022/08/24 11:14:05;;;;;;;1.80;1.70;;;24.80;66.30;;;;;;5037618;28;43495;-66
2022/08/24 11:16:39;;;;;;;2.47;1.60;;;24.80;66.40;;;;;;5039584;28;44993;-66
2022/08/24 11:19:13;;;;;;;1.90;1.80;;;24.90;66.40;;;;;;5038179;28;43655;-66
2022/08/24 11:21:51;;;;;;;2.00;1.90;;;24.90;66.60;;;;;;5041325;28;43445;-66
2022/08/24 11:24:44;;;;;;;1.50;1.40;;;24.90;66.40;;;;;;5037369;28;43519;-66
2022/08/24 11:27:35;;;;;;;1.60;1.50;;;24.90;66.40;;;;;;5037980;28;43920;-66
2022/08/24 11:30:29;;;;;;;;;;;24.90;66.30;;;;;;5038587;28;43532;-66
2022/08/24 11:33:05;;;;;;;1.90;1.70;;;24.90;66.30;;;;;;5037514;28;43561;-66
2022/08/24 11:35:33;;;;;;;1.90;1.80;;;25.00;66.40;;;;;;5039301;28;43435;-66
2022/08/24 11:38:19;;;;;;;1.80;1.70;;;25.00;66.40;;;;;;5040433;28;45034;-66
2022/08/24 11:40:55;;;;;;;1.83;1.73;;;25.00;66.20;;;;;;5038013;28;43526;-66
2022/08/24 11:43:45;;;;;;;1.90;1.80;;;25.00;66.30;;;;;;5039982;28;43429;-67
2022/08/24 11:46:46;;;;;;;1.90;1.80;;;25.00;66.20;;;;;;5029208;28;43447;-66
2022/08/24 11:49:25;;;;;;;2.25;2.13;;;25.00;66.40;;;;;;5035133;28;44924;-66
2022/08/24 11:51:59;;;;;;;1.67;1.58;;;25.10;66.80;;;;;;5038608;28;43969;-66
2022/08/24 11:54:51;;;;;;;1.83;1.73;;;25.10;66.50;;;;;;5026866;28;43475;-66
2022/08/24 11:57:40;;;;;;;1.60;1.50;;;25.10;66.40;;;;;;5034149;28;43483;-66
2022/08/24 12:00:20;;;;;;;1.70;1.60;;;25.10;66.30;;;;;;5035373;28;44672;-66
2022/08/24 12:03:13;;;;;;;1.67;1.58;;;25.10;66.20;;;;;;5040424;28;43987;-66
2022/08/24 12:05:49;;;;;;;1.92;1.75;;;25.10;66.30;;;;;;5033401;28;43446;-66
2022/08/24 12:08:34;;;;;;;2.10;1.90;;;25.10;66.30;;;;;;5035998;28;43828;-66
2022/08/24 12:11:22;;;;;;;1.63;1.52;;;25.10;66.40;;;;;;5033054;28;44639;-66
2022/08/24 12:14:03;;;;;;;1.45;1.35;;;25.10;66.20;;;;;;5041199;28;43664;-66
2022/08/24 12:16:54;;;;;;;1.40;1.40;;;25.10;66.20;;;;;;5033489;28;43539;-66
2022/08/24 12:19:29;;;;;;;1.60;1.60;;;25.10;66.30;;;;;;5037604;28;43443;-66
2022/08/24 12:22:02;;;;;;;1.80;1.70;;;25.10;66.40;;;;;;5031191;28;44998;-66
2022/08/24 12:24:50;;;;;;;1.75;1.65;;;25.10;66.50;;;;;;5043620;28;43539;-66
2022/08/24 12:27:33;;;;;;;1.70;1.50;;;25.10;66.40;;;;;;5044994;28;44571;-66
2022/08/24 12:30:15;;;;;;;1.70;1.60;;;25.20;66.60;;;;;;5039531;28;43551;-66
2022/08/24 12:32:59;;;;;;;2.00;1.60;;;25.20;66.40;;;;;;5028801;28;44973;-66
2022/08/24 12:35:36;;;;;;;1.73;1.63;;;25.30;66.40;;;;;;5038962;28;43654;-66
2022/08/24 12:38:20;;;;;;;1.83;1.73;;;25.20;66.50;;;;;;5041118;28;43515;-66
2022/08/24 12:40:54;;;;;;;1.50;1.40;;;25.30;66.30;;;;;;5032992;28;43494;-66
2022/08/24 12:43:38;;;;;;;1.50;1.40;;;25.30;66.40;;;;;;5039089;28;43798;-66
2022/08/24 12:46:06;;;;;;;1.85;1.70;;;25.40;66.40;;;;;;5037944;28;43934;-66
2022/08/24 12:48:44;;;;;;;1.90;1.70;;;25.40;66.50;;;;;;5059440;28;43506;-66
2022/08/24 12:51:20;;;;;;;1.77;1.67;;;25.40;66.40;;;;;;5032132;28;44071;-66
2022/08/24 12:54:05;;;;;;;1.65;1.55;;;25.40;66.40;;;;;;5032199;28;44620;-66
2022/08/24 12:57:00;;;;;;;1.60;1.50;;;25.40;66.40;;;;;;5034151;28;43917;-66
2022/08/24 12:59:37;;;;;;;1.60;1.50;;;25.50;66.40;;;;;;5029839;28;43427;-66
2022/08/24 13:02:07;;;;;;;1.45;1.35;;;25.50;66.50;;;;;;5052524;28;43559;-66
2022/08/24 13:04:50;;;;;;;1.77;1.70;;;25.60;66.40;;;;;;5042401;28;45022;-66
2022/08/24 13:07:17;;;;;;;1.60;1.50;;;25.60;66.40;;;;;;5040001;28;43491;-66
2022/08/24 13:09:49;;;;;;;1.55;1.48;;;25.60;67.20;;;;;;5027507;28;43468;-66
2022/08/24 13:12:40;;;;;;;1.70;1.60;;;25.70;66.40;;;;;;5036828;28;43410;-66
2022/08/24 13:15:26;;;;;;;2.10;1.40;;;25.70;66.40;;;;;;5041341;28;44689;-66
2022/08/24 13:18:20;;;;;;;1.73;1.40;;;25.70;66.30;;;;;;5034166;28;43474;-66
2022/08/24 13:20:50;;;;;;;1.52;1.42;;;25.70;66.30;;;;;;5039697;28;43416;-66
2022/08/24 13:23:22;;;;;;;1.65;1.55;;;25.70;66.40;;;;;;5034001;28;43551;-66
2022/08/24 13:26:16;;;;;;;2.10;1.92;;;25.80;66.30;;;;;;5042377;28;43780;-66
2022/08/24 13:28:52;;;;;;;1.80;1.70;;;25.80;66.40;;;;;;5041966;28;43636;-66
2022/08/24 13:31:26;;;;;;;1.77;1.67;;;25.80;66.30;;;;;;5033412;28;43524;-66
2022/08/24 13:33:54;;;;;;;1.67;1.58;;;25.90;66.40;;;;;;5040874;28;43484;-66
2022/08/24 13:36:33;;;;;;;1.73;1.63;;;25.90;66.30;;;;;;5029796;28;43824;-66
2022/08/24 13:39:32;;;;;;;1.90;1.50;;;25.90;66.20;;;;;;5032052;28;43563;-66
2022/08/24 13:42:37;;;;;;;1.70;1.60;;;26.00;66.40;;;;;;5043610;28;43451;-66
2022/08/24 13:45:26;;;;;;;1.70;1.60;;;26.00;66.30;;;;;;5037115;28;43504;-66